Time;durP1;ratioP1;P1;durP2;ratioP2;P2;SDS_P1;SDS_P2;PMS_P1;PMS_P2;Temp;Humidity;BMP_temperature;BMP_pressure;BME280_temperature;BME280_humidity;BME280_pressure;Samples;Min_cycle;Max_cycle;Signal;HPM_P1;HPM_P2
2023/12/27 00:02:02;;;;;;;15.80;14.90;;;6.80;1.00;;;;;;4924705;29;20213;-54
2023/12/27 00:04:28;;;;;;;15.83;14.93;;;6.70;1.00;;;;;;4925568;29;20736;-38
2023/12/27 00:06:55;;;;;;;15.73;14.73;;;6.70;1.00;;;;;;4930693;29;20438;-54
2023/12/27 00:09:21;;;;;;;15.03;14.30;;;6.60;1.00;;;;;;4933170;29;20313;-54
2023/12/27 00:11:47;;;;;;;15.30;14.40;;;6.70;1.00;;;;;;4936061;29;20436;-56
2023/12/27 00:14:12;;;;;;;15.40;14.50;;;6.70;1.00;;;;;;4933635;29;20202;-51
2023/12/27 00:16:38;;;;;;;15.10;14.40;;;6.60;1.00;;;;;;4930815;29;20198;-57
2023/12/27 00:19:03;;;;;;;14.50;13.80;;;6.70;1.00;;;;;;4931075;29;20205;-37
2023/12/27 00:21:29;;;;;;;14.70;14.00;;;6.70;1.00;;;;;;4931487;29;20241;-38
2023/12/27 00:23:55;;;;;;;14.77;13.97;;;6.70;1.00;;;;;;4933046;29;21286;-37
2023/12/27 00:26:21;;;;;;;15.10;14.30;;;6.60;1.00;;;;;;4930547;29;20178;-37
2023/12/27 00:28:46;;;;;;;14.90;14.10;;;6.70;1.00;;;;;;4924812;29;20425;-37
2023/12/27 00:31:13;;;;;;;15.20;14.40;;;6.70;1.00;;;;;;4930084;29;20722;-37
2023/12/27 00:33:38;;;;;;;15.17;14.40;;;6.70;1.00;;;;;;4934859;29;20195;-37
2023/12/27 00:36:06;;;;;;;16.33;15.23;;;6.70;1.00;;;;;;4934017;29;20788;-37
2023/12/27 00:38:32;;;;;;;16.60;15.43;;;6.70;1.00;;;;;;4932637;29;20566;-38
2023/12/27 00:40:59;;;;;;;15.70;14.90;;;6.70;1.00;;;;;;4932712;29;20433;-38
2023/12/27 00:43:24;;;;;;;15.90;15.10;;;6.70;1.00;;;;;;4925160;29;20179;-37
2023/12/27 00:45:50;;;;;;;15.57;14.70;;;6.70;1.00;;;;;;4926188;29;20503;-37
2023/12/27 00:48:16;;;;;;;16.13;15.23;;;6.70;1.00;;;;;;4917821;29;20379;-38
2023/12/27 00:50:42;;;;;;;15.80;14.93;;;6.70;1.00;;;;;;4923412;29;20182;-47
2023/12/27 00:53:07;;;;;;;15.60;14.80;;;6.60;1.00;;;;;;4924981;29;20190;-53
2023/12/27 00:55:33;;;;;;;15.73;14.80;;;6.60;1.00;;;;;;4923886;29;20299;-37
2023/12/27 00:57:58;;;;;;;15.87;14.73;;;6.60;13.00;;;;;;4924614;29;20541;-38
2023/12/27 01:00:24;;;;;;;14.87;14.10;;;6.60;19.30;;;;;;4923558;29;20216;-37
2023/12/27 01:02:50;;;;;;;15.47;14.67;;;6.60;17.30;;;;;;4924292;29;20217;-37
2023/12/27 01:05:15;;;;;;;14.97;14.27;;;6.60;24.00;;;;;;4924164;29;20182;-37
2023/12/27 01:07:41;;;;;;;15.03;14.23;;;6.60;20.50;;;;;;4925051;29;20188;-37
2023/12/27 01:10:07;;;;;;;15.13;14.23;;;6.60;17.90;;;;;;4920687;29;20194;-37
2023/12/27 01:12:33;;;;;;;15.23;14.43;;;6.50;20.80;;;;;;4923878;29;20194;-37
2023/12/27 01:14:58;;;;;;;14.90;14.20;;;6.60;18.90;;;;;;4924388;29;20470;-37
2023/12/27 01:17:24;;;;;;;15.40;14.60;;;6.60;14.90;;;;;;4924330;29;20205;-37
2023/12/27 01:19:49;;;;;;;14.77;13.97;;;6.70;1.00;;;;;;4922474;29;20200;-37
2023/12/27 01:22:15;;;;;;;14.90;14.10;;;6.60;1.00;;;;;;4923756;29;20648;-38
2023/12/27 01:24:41;;;;;;;14.60;13.90;;;6.60;1.00;;;;;;4924447;29;20182;-39
2023/12/27 01:27:06;;;;;;;15.00;13.93;;;6.60;1.00;;;;;;4923671;29;20192;-37
2023/12/27 01:29:32;;;;;;;14.43;13.73;;;6.60;1.00;;;;;;4922821;29;20194;-38
2023/12/27 01:31:57;;;;;;;14.60;13.90;;;6.60;1.00;;;;;;4907891;29;20193;-37
2023/12/27 01:34:23;;;;;;;14.50;13.70;;;6.60;1.00;;;;;;4923646;29;20204;-38
2023/12/27 01:36:49;;;;;;;14.10;13.40;;;6.60;1.00;;;;;;4923880;29;20194;-38
2023/12/27 01:39:14;;;;;;;14.77;13.80;;;6.50;1.00;;;;;;4922624;29;20264;-37
2023/12/27 01:41:40;;;;;;;14.70;13.90;;;6.50;1.00;;;;;;4923986;29;20205;-37
2023/12/27 01:44:05;;;;;;;14.37;13.63;;;6.50;1.00;;;;;;4923239;29;20194;-38
2023/12/27 01:46:31;;;;;;;15.13;13.90;;;6.40;1.00;;;;;;4922594;29;21017;-38
2023/12/27 01:48:58;;;;;;;14.17;13.47;;;6.30;1.00;;;;;;4915811;29;20268;-37
2023/12/27 01:51:25;;;;;;;14.60;13.90;;;6.30;1.00;;;;;;4909807;29;20629;-38
2023/12/27 01:53:51;;;;;;;14.20;13.50;;;6.20;1.00;;;;;;4924208;29;20178;-38
2023/12/27 01:56:17;;;;;;;14.20;13.30;;;6.10;1.00;;;;;;4909480;29;20285;-37
2023/12/27 01:58:43;;;;;;;14.23;13.40;;;6.10;1.00;;;;;;4916454;29;20513;-37
2023/12/27 02:01:08;;;;;;;14.00;13.30;;;6.10;1.00;;;;;;4915206;29;20197;-37
2023/12/27 02:03:34;;;;;;;13.70;12.80;;;6.00;1.00;;;;;;4915506;29;20537;-37
2023/12/27 02:06:00;;;;;;;13.30;12.70;;;5.90;1.00;;;;;;4904713;29;20192;-37
2023/12/27 02:08:26;;;;;;;13.70;13.00;;;5.90;1.00;;;;;;4915467;29;20193;-37
2023/12/27 02:10:52;;;;;;;13.10;12.45;;;5.90;1.00;;;;;;4908928;29;20195;-37
2023/12/27 02:13:19;;;;;;;13.00;12.40;;;5.80;1.00;;;;;;4906203;29;20693;-37
2023/12/27 02:15:46;;;;;;;13.30;12.50;;;5.80;1.00;;;;;;4916201;29;20198;-37
2023/12/27 02:18:12;;;;;;;13.40;12.50;;;5.70;1.00;;;;;;4913481;29;20191;-37
2023/12/27 02:20:39;;;;;;;13.18;12.48;;;5.70;1.00;;;;;;4913539;29;20204;-37
2023/12/27 02:23:10;;;;;;;13.05;12.35;;;5.60;1.00;;;;;;4913754;29;20206;-37
2023/12/27 02:25:37;;;;;;;12.80;12.20;;;5.70;1.00;;;;;;4918608;29;20198;-36
2023/12/27 02:28:03;;;;;;;12.57;12.07;;;5.60;1.00;;;;;;4916948;29;20193;-38
2023/12/27 02:30:31;;;;;;;12.97;12.37;;;5.50;1.00;;;;;;4917377;29;20197;-37
2023/12/27 02:32:56;;;;;;;13.07;12.38;;;5.40;1.00;;;;;;4917490;29;20905;-37
2023/12/27 02:35:22;;;;;;;12.57;11.97;;;5.40;1.00;;;;;;4908896;29;20197;-37
2023/12/27 02:37:47;;;;;;;12.80;12.20;;;5.30;1.00;;;;;;4909984;29;20187;-38
2023/12/27 02:40:13;;;;;;;13.33;12.33;;;5.20;1.00;;;;;;4915612;29;20190;-37
2023/12/27 02:42:39;;;;;;;13.30;12.20;;;5.20;1.00;;;;;;4921357;29;20271;-37
2023/12/27 02:45:06;;;;;;;12.95;11.98;;;5.10;1.00;;;;;;4915879;29;20257;-37
2023/12/27 02:47:32;;;;;;;12.65;11.88;;;5.10;1.00;;;;;;4905944;29;20196;-37
2023/12/27 02:49:58;;;;;;;12.70;12.00;;;5.00;1.00;;;;;;4918256;29;20230;-37
2023/12/27 02:52:24;;;;;;;12.93;11.80;;;5.00;1.00;;;;;;4919153;29;20970;-37
2023/12/27 02:54:49;;;;;;;12.50;11.80;;;5.00;1.00;;;;;;4922717;29;20194;-37
2023/12/27 02:57:15;;;;;;;12.30;11.60;;;4.90;1.00;;;;;;4922986;29;20236;-37
2023/12/27 02:59:40;;;;;;;12.57;11.87;;;4.90;1.00;;;;;;4920302;29;20202;-39
2023/12/27 03:02:06;;;;;;;12.40;11.70;;;4.80;1.00;;;;;;4923143;29;20213;-38
2023/12/27 03:04:32;;;;;;;12.30;11.70;;;4.80;1.00;;;;;;4922296;29;20217;-38
2023/12/27 03:06:57;;;;;;;11.93;11.20;;;4.80;1.00;;;;;;4922116;29;20229;-38
2023/12/27 03:09:24;;;;;;;12.00;11.50;;;4.70;1.00;;;;;;4921392;29;20201;-39
2023/12/27 03:11:51;;;;;;;11.88;11.27;;;4.70;1.00;;;;;;4923074;29;20189;-38
2023/12/27 03:14:17;;;;;;;11.90;11.30;;;4.70;1.00;;;;;;4918885;29;20199;-38
2023/12/27 03:16:42;;;;;;;11.85;11.25;;;4.60;1.00;;;;;;4922873;29;20198;-37
2023/12/27 03:19:08;;;;;;;12.20;11.30;;;4.50;1.00;;;;;;4918338;29;20193;-57
2023/12/27 03:21:34;;;;;;;12.30;11.50;;;4.50;1.00;;;;;;4921626;29;20293;-55
2023/12/27 03:23:59;;;;;;;12.10;11.60;;;4.40;1.00;;;;;;4918204;29;22142;-52
2023/12/27 03:26:25;;;;;;;12.43;11.70;;;4.40;1.00;;;;;;4920164;29;20190;-38
2023/12/27 03:28:50;;;;;;;12.57;11.53;;;4.30;4.30;;;;;;4917724;29;20185;-38
2023/12/27 03:31:16;;;;;;;11.47;10.97;;;4.10;17.90;;;;;;4920329;29;20281;-38
2023/12/27 03:33:42;;;;;;;11.70;11.10;;;4.00;42.30;;;;;;4920909;29;20195;-37
2023/12/27 03:36:07;;;;;;;12.00;11.23;;;4.00;80.00;;;;;;4919792;29;20646;-38
2023/12/27 03:38:33;;;;;;;11.97;11.17;;;3.90;97.20;;;;;;4921843;29;20193;-39
2023/12/27 03:40:59;;;;;;;12.18;11.43;;;3.80;99.90;;;;;;4920089;29;20248;-37
2023/12/27 03:43:25;;;;;;;12.03;11.23;;;3.80;99.90;;;;;;4921194;29;20204;-38
2023/12/27 03:45:53;;;;;;;11.63;10.90;;;3.70;99.90;;;;;;4920600;29;20193;-37
2023/12/27 03:48:20;;;;;;;11.30;10.80;;;3.70;99.90;;;;;;4922913;29;20220;-38
2023/12/27 03:50:45;;;;;;;11.38;10.80;;;3.70;99.90;;;;;;4924956;29;20191;-38
2023/12/27 03:53:11;;;;;;;12.27;11.47;;;3.60;99.90;;;;;;4939581;29;20619;-38
2023/12/27 03:55:36;;;;;;;11.90;11.17;;;3.60;99.90;;;;;;4922169;29;20273;-37
2023/12/27 03:58:02;;;;;;;11.80;11.20;;;3.50;99.90;;;;;;4922656;29;20540;-37
2023/12/27 04:00:28;;;;;;;11.90;10.90;;;3.50;99.90;;;;;;4928785;29;20248;-37
2023/12/27 04:02:54;;;;;;;11.80;11.20;;;3.40;99.90;;;;;;4922743;29;20648;-37
2023/12/27 04:05:20;;;;;;;11.93;11.23;;;3.40;99.90;;;;;;4930578;29;20200;-37
2023/12/27 04:07:45;;;;;;;12.33;11.43;;;3.30;99.90;;;;;;4940541;29;20192;-37
2023/12/27 04:10:11;;;;;;;12.00;11.40;;;3.30;99.90;;;;;;4924458;29;20178;-38
2023/12/27 04:12:36;;;;;;;11.37;10.77;;;3.30;99.90;;;;;;4933797;29;20196;-37
2023/12/27 04:15:02;;;;;;;16.50;11.27;;;3.30;99.90;;;;;;4926629;29;20711;-37
2023/12/27 04:17:28;;;;;;;12.10;11.30;;;3.30;99.90;;;;;;4926894;29;20189;-37
2023/12/27 04:19:54;;;;;;;11.50;10.90;;;3.20;99.90;;;;;;4924958;29;20612;-37
2023/12/27 04:22:20;;;;;;;11.30;10.70;;;3.20;99.90;;;;;;4937065;29;20219;-37
2023/12/27 04:24:46;;;;;;;12.00;11.10;;;3.10;99.90;;;;;;4922684;29;20292;-37
2023/12/27 04:27:11;;;;;;;11.87;11.23;;;3.10;99.90;;;;;;4921850;29;20660;-38
2023/12/27 04:29:37;;;;;;;11.57;11.00;;;3.10;99.90;;;;;;4940219;29;20199;-37
2023/12/27 04:32:03;;;;;;;12.00;11.30;;;3.10;99.90;;;;;;4931134;29;20201;-57
2023/12/27 04:34:28;;;;;;;10.77;10.30;;;3.00;99.90;;;;;;4934646;29;20204;-56
2023/12/27 04:36:54;;;;;;;11.40;10.90;;;3.00;99.90;;;;;;4944197;29;20466;-56
2023/12/27 04:39:19;;;;;;;10.70;10.20;;;2.90;99.90;;;;;;4932838;29;20794;-57
2023/12/27 04:41:45;;;;;;;12.03;11.10;;;2.90;99.90;;;;;;4929866;29;20219;-54
2023/12/27 04:44:11;;;;;;;12.43;11.73;;;2.80;99.90;;;;;;4940783;29;20217;-54
2023/12/27 04:46:36;;;;;;;11.70;11.10;;;2.70;99.90;;;;;;4922653;29;20768;-53
2023/12/27 04:49:08;;;;;;;12.47;11.60;;;2.70;99.90;;;;;;4928219;29;20234;-55
2023/12/27 04:51:34;;;;;;;11.85;11.10;;;2.60;99.90;;;;;;4933048;29;20220;-54
2023/12/27 04:54:00;;;;;;;12.45;11.68;;;2.60;99.90;;;;;;4935281;29;20197;-55
2023/12/27 04:56:26;;;;;;;12.27;11.57;;;2.60;99.90;;;;;;4934354;29;20198;-37
2023/12/27 04:58:51;;;;;;;12.80;12.00;;;2.50;99.90;;;;;;4926972;29;20563;-38
2023/12/27 05:01:17;;;;;;;12.10;11.50;;;2.50;99.90;;;;;;4936391;29;20211;-38
2023/12/27 05:03:44;;;;;;;11.83;11.07;;;2.50;99.90;;;;;;4924250;29;20184;-37
2023/12/27 05:06:11;;;;;;;12.35;11.55;;;2.50;99.90;;;;;;4931261;29;20435;-57
2023/12/27 05:08:40;;;;;;;11.02;10.52;;;2.50;99.90;;;;;;4920992;29;20188;-56
2023/12/27 05:11:20;;;;;;;11.45;10.82;;;2.50;99.90;;;;;;4921406;29;21008;-56
2023/12/27 05:13:45;;;;;;;13.07;12.38;;;2.50;99.90;;;;;;4933871;29;20283;-56
2023/12/27 05:16:15;;;;;;;11.47;10.87;;;2.50;99.90;;;;;;4931416;29;20536;-57
2023/12/27 05:18:44;;;;;;;10.52;9.93;;;2.50;99.90;;;;;;4936989;29;20180;-55
2023/12/27 05:21:12;;;;;;;10.75;10.05;;;2.50;99.90;;;;;;4924774;29;20200;-55
2023/12/27 05:23:38;;;;;;;11.27;10.75;;;2.50;99.90;;;;;;4924928;29;20193;-56
2023/12/27 05:26:05;;;;;;;11.13;10.53;;;2.50;99.90;;;;;;4928620;29;20187;-52
2023/12/27 05:28:31;;;;;;;11.13;10.52;;;2.50;99.90;;;;;;4926668;29;20435;-54
2023/12/27 05:30:57;;;;;;;11.40;10.60;;;2.40;99.90;;;;;;4920736;29;20194;-55
2023/12/27 05:33:25;;;;;;;11.00;10.50;;;2.40;99.90;;;;;;4933109;29;20203;-57
2023/12/27 05:35:51;;;;;;;11.82;11.13;;;2.40;99.90;;;;;;4931714;29;20205;-57
2023/12/27 05:38:17;;;;;;;11.45;10.68;;;2.30;99.90;;;;;;4923593;29;20191;-57
2023/12/27 05:40:43;;;;;;;11.70;10.60;;;2.30;99.90;;;;;;4922108;29;20208;-57
2023/12/27 05:43:08;;;;;;;11.17;10.57;;;2.30;99.90;;;;;;4921276;29;20989;-55
2023/12/27 05:45:34;;;;;;;11.00;10.33;;;2.20;99.90;;;;;;4924752;29;21148;-50
2023/12/27 05:48:00;;;;;;;11.00;10.20;;;2.20;99.90;;;;;;4942900;29;20409;-57
2023/12/27 05:50:25;;;;;;;11.20;10.30;;;2.20;99.90;;;;;;4925551;29;20196;-54
2023/12/27 05:52:51;;;;;;;12.00;11.30;;;2.20;99.90;;;;;;4923779;29;20445;-55
2023/12/27 05:55:17;;;;;;;10.70;10.10;;;2.20;99.90;;;;;;4922924;29;20189;-53
2023/12/27 05:57:43;;;;;;;11.63;10.90;;;2.20;99.90;;;;;;4927787;29;20198;-52
2023/12/27 06:00:09;;;;;;;11.77;11.13;;;2.10;99.90;;;;;;4936831;28;20245;-54
2023/12/27 06:02:34;;;;;;;13.20;12.20;;;2.10;99.90;;;;;;4928067;29;20249;-54
2023/12/27 06:05:00;;;;;;;12.07;11.27;;;2.10;99.90;;;;;;4930231;29;20192;-50
2023/12/27 06:07:26;;;;;;;12.40;11.70;;;2.10;99.90;;;;;;4924568;29;20233;-57
2023/12/27 06:09:52;;;;;;;11.90;11.10;;;2.10;99.90;;;;;;4919506;29;20446;-56
2023/12/27 06:12:18;;;;;;;11.60;10.77;;;2.00;99.90;;;;;;4939475;29;20426;-54
2023/12/27 06:14:44;;;;;;;11.00;10.50;;;2.00;99.90;;;;;;4923089;29;20697;-55
2023/12/27 06:17:09;;;;;;;11.53;11.03;;;2.00;99.90;;;;;;4916702;29;20424;-55
2023/12/27 06:19:36;;;;;;;12.03;11.23;;;2.00;99.90;;;;;;4926650;29;20548;-56
2023/12/27 06:22:02;;;;;;;13.02;11.95;;;2.00;99.90;;;;;;4931524;29;20687;-54
2023/12/27 06:24:28;;;;;;;11.73;10.98;;;2.00;99.90;;;;;;4924798;29;20208;-56
2023/12/27 06:26:54;;;;;;;12.17;11.27;;;2.00;99.90;;;;;;4928276;29;20188;-57
2023/12/27 06:29:19;;;;;;;12.37;11.40;;;2.00;99.90;;;;;;4928318;29;20199;-56
2023/12/27 06:31:45;;;;;;;12.10;11.40;;;1.90;99.90;;;;;;4923780;29;20836;-56
2023/12/27 06:34:10;;;;;;;11.67;11.07;;;1.90;99.90;;;;;;4923996;29;20204;-56
2023/12/27 06:36:36;;;;;;;12.67;11.67;;;1.90;99.90;;;;;;4925077;29;20191;-56
2023/12/27 06:39:02;;;;;;;11.70;11.10;;;1.90;99.90;;;;;;4929001;29;21307;-37
2023/12/27 06:41:27;;;;;;;12.23;11.53;;;2.00;99.90;;;;;;4934298;29;20213;-38
2023/12/27 06:43:53;;;;;;;11.40;10.80;;;1.90;99.90;;;;;;4937099;29;20282;-38
2023/12/27 06:46:19;;;;;;;12.13;11.43;;;1.90;99.90;;;;;;4924518;29;20562;-37
2023/12/27 06:48:45;;;;;;;12.00;11.20;;;1.90;99.90;;;;;;4937015;29;20231;-38
2023/12/27 06:51:12;;;;;;;11.93;11.13;;;2.00;99.90;;;;;;4914549;29;20203;-54
2023/12/27 06:53:37;;;;;;;12.15;11.45;;;1.90;99.90;;;;;;4924647;29;20278;-49
2023/12/27 06:56:03;;;;;;;11.90;11.30;;;1.90;99.90;;;;;;4921390;29;20739;-54
2023/12/27 06:58:29;;;;;;;11.23;10.67;;;1.90;99.90;;;;;;4913929;29;20283;-54
2023/12/27 07:00:54;;;;;;;11.50;10.83;;;1.80;99.90;;;;;;4907535;29;20460;-51
2023/12/27 07:03:20;;;;;;;11.57;10.93;;;1.80;99.90;;;;;;4912409;29;20291;-56
2023/12/27 07:05:46;;;;;;;11.97;11.37;;;1.80;99.90;;;;;;4922705;29;20194;-55
2023/12/27 07:08:12;;;;;;;11.80;11.10;;;1.80;99.90;;;;;;4929158;29;20213;-57
2023/12/27 07:10:37;;;;;;;11.70;11.10;;;1.90;99.90;;;;;;4910924;29;20202;-55
2023/12/27 07:13:03;;;;;;;12.10;11.50;;;1.80;99.90;;;;;;4922354;29;20200;-54
2023/12/27 07:15:29;;;;;;;12.37;11.40;;;1.80;99.90;;;;;;4923439;28;20214;-53
2023/12/27 07:17:55;;;;;;;11.10;10.60;;;1.80;99.90;;;;;;4923400;29;20454;-55
2023/12/27 07:20:21;;;;;;;13.03;11.90;;;1.80;99.90;;;;;;4928964;29;20702;-49
2023/12/27 07:22:47;;;;;;;11.88;11.18;;;1.70;99.90;;;;;;4933334;29;20468;-56
2023/12/27 07:25:13;;;;;;;12.15;11.45;;;1.80;99.90;;;;;;4941164;29;20211;-52
2023/12/27 07:27:38;;;;;;;12.90;11.90;;;1.80;99.90;;;;;;4928145;29;20994;-54
2023/12/27 07:30:05;;;;;;;13.20;12.23;;;1.80;99.90;;;;;;4941755;29;20454;-56
2023/12/27 07:32:30;;;;;;;11.55;10.95;;;1.80;99.90;;;;;;4929073;29;20193;-55
2023/12/27 07:34:57;;;;;;;13.27;12.20;;;1.80;99.90;;;;;;4930450;29;20704;-56
2023/12/27 07:37:23;;;;;;;12.48;11.73;;;1.80;99.90;;;;;;4932022;29;20659;-56
2023/12/27 07:39:49;;;;;;;12.13;11.23;;;1.80;99.90;;;;;;4940678;29;20245;-54
2023/12/27 07:42:15;;;;;;;13.27;12.47;;;1.80;99.90;;;;;;4915457;29;20615;-53
2023/12/27 07:44:40;;;;;;;12.53;11.83;;;1.80;99.90;;;;;;4941159;29;20186;-54
2023/12/27 07:47:07;;;;;;;13.10;12.10;;;1.90;99.90;;;;;;4925441;29;20202;-53
2023/12/27 07:49:32;;;;;;;13.52;12.68;;;1.90;99.90;;;;;;4926054;29;20744;-56
2023/12/27 07:51:58;;;;;;;12.33;11.53;;;1.90;99.90;;;;;;4932306;29;20264;-55
2023/12/27 07:54:23;;;;;;;13.47;12.37;;;2.00;99.90;;;;;;4930989;29;20198;-56
2023/12/27 07:56:49;;;;;;;13.67;12.57;;;2.00;99.90;;;;;;4926791;29;21004;-56
2023/12/27 07:59:15;;;;;;;13.00;12.20;;;2.10;99.90;;;;;;4926077;29;20244;-57
2023/12/27 08:01:41;;;;;;;13.63;12.63;;;2.10;99.90;;;;;;4923699;29;20491;-53
2023/12/27 08:04:06;;;;;;;13.60;12.67;;;2.20;99.90;;;;;;4932093;28;20668;-57
2023/12/27 08:06:32;;;;;;;13.60;12.40;;;2.40;99.90;;;;;;4920730;29;20186;-56
2023/12/27 08:08:57;;;;;;;14.63;13.20;;;2.50;99.90;;;;;;4934754;28;20368;-37
2023/12/27 08:11:23;;;;;;;15.77;14.17;;;2.60;99.90;;;;;;4934112;29;20196;-52
2023/12/27 08:13:49;;;;;;;14.60;13.70;;;2.80;99.90;;;;;;4928127;29;20195;-55
2023/12/27 08:16:15;;;;;;;14.00;13.10;;;3.00;99.90;;;;;;4924914;29;20524;-37
2023/12/27 08:18:41;;;;;;;14.80;13.43;;;3.20;99.90;;;;;;4920608;29;20442;-36
2023/12/27 08:21:07;;;;;;;15.60;14.37;;;3.40;99.90;;;;;;4935899;29;20299;-37
2023/12/27 08:23:32;;;;;;;14.53;13.60;;;3.60;99.90;;;;;;4939146;29;20220;-49
2023/12/27 08:25:58;;;;;;;15.00;13.60;;;3.90;99.90;;;;;;4929006;29;20496;-36
2023/12/27 08:28:24;;;;;;;16.50;15.10;;;4.20;99.90;;;;;;4929328;29;20799;-56
2023/12/27 08:30:53;;;;;;;15.38;14.30;;;4.60;99.90;;;;;;4912538;29;20316;-51
2023/12/27 08:33:18;;;;;;;15.75;14.45;;;4.80;99.90;;;;;;4906062;29;20190;-54
2023/12/27 08:35:44;;;;;;;16.83;15.63;;;5.20;99.90;;;;;;4929143;29;20194;-55
2023/12/27 08:38:10;;;;;;;17.13;15.93;;;5.60;99.90;;;;;;4926298;29;20276;-56
2023/12/27 08:40:35;;;;;;;15.63;14.30;;;6.00;99.90;;;;;;4925327;29;20190;-55
2023/12/27 08:43:01;;;;;;;16.50;15.27;;;6.30;99.90;;;;;;4923759;29;20212;-55
2023/12/27 08:45:27;;;;;;;15.87;14.77;;;6.70;90.90;;;;;;4905943;29;20189;-53
2023/12/27 08:47:52;;;;;;;16.80;15.70;;;7.00;44.70;;;;;;4923813;29;20407;-53
2023/12/27 08:50:18;;;;;;;17.03;15.83;;;7.20;22.60;;;;;;4944512;29;20189;-54
2023/12/27 08:52:44;;;;;;;15.37;14.20;;;7.20;1.00;;;;;;4922750;29;20534;-53
2023/12/27 08:55:10;;;;;;;15.90;14.67;;;7.20;1.00;;;;;;4906748;29;20198;-37
2023/12/27 08:57:39;;;;;;;15.90;14.60;;;7.40;1.00;;;;;;4917519;29;20201;-37
2023/12/27 09:00:10;;;;;;;14.50;13.37;;;7.60;1.00;;;;;;4931109;29;20900;-37
2023/12/27 09:02:38;;;;;;;14.80;13.80;;;7.80;1.00;;;;;;4932238;29;20470;-37
2023/12/27 09:05:05;;;;;;;14.67;13.77;;;7.80;1.00;;;;;;4924770;29;20434;-37
2023/12/27 09:07:31;;;;;;;14.60;13.70;;;7.90;1.00;;;;;;4921109;29;20426;-37
2023/12/27 09:09:57;;;;;;;14.30;13.40;;;8.20;1.00;;;;;;4930743;29;20436;-37
2023/12/27 09:12:23;;;;;;;14.73;13.63;;;8.40;1.00;;;;;;4925172;29;20222;-37
2023/12/27 09:14:48;;;;;;;14.70;13.90;;;8.60;1.00;;;;;;4928587;29;21235;-37
2023/12/27 09:17:15;;;;;;;14.67;13.73;;;8.60;1.00;;;;;;4920120;29;20258;-37
2023/12/27 09:19:42;;;;;;;15.00;13.93;;;8.60;99.90;;;;;;4922550;29;20198;-37
2023/12/27 09:22:07;;;;;;;15.07;14.03;;;8.80;1.00;;;;;;4921292;29;21290;-37
2023/12/27 09:24:33;;;;;;;14.30;13.40;;;9.00;99.90;;;;;;4929985;29;20442;-37
2023/12/27 09:26:59;;;;;;;15.07;14.07;;;9.20;99.90;;;;;;4923195;29;20635;-38
2023/12/27 09:29:25;;;;;;;14.00;13.20;;;9.40;97.60;;;;;;4923286;29;20538;-37
2023/12/27 09:31:51;;;;;;;14.43;13.17;;;9.50;1.00;;;;;;4939026;29;20872;-38
2023/12/27 09:34:16;;;;;;;14.47;13.60;;;9.70;1.00;;;;;;4925396;29;20253;-37
2023/12/27 09:36:42;;;;;;;14.10;13.30;;;10.00;1.00;;;;;;4929084;29;20253;-37
2023/12/27 09:39:11;;;;;;;14.27;13.13;;;10.10;99.90;;;;;;4937929;29;20240;-38
2023/12/27 09:41:37;;;;;;;14.40;13.40;;;10.30;99.90;;;;;;4921203;29;20553;-37
2023/12/27 09:44:06;;;;;;;13.50;12.70;;;10.30;99.90;;;;;;4925223;29;20425;-37
2023/12/27 09:46:33;;;;;;;14.00;13.20;;;10.60;99.90;;;;;;4941275;29;20185;-37
2023/12/27 09:48:59;;;;;;;13.33;12.60;;;10.50;24.70;;;;;;4938532;29;20469;-38
2023/12/27 09:51:25;;;;;;;15.03;13.83;;;10.50;1.00;;;;;;4920528;29;20437;-37
2023/12/27 09:53:51;;;;;;;14.00;13.20;;;10.30;1.00;;;;;;4921306;29;20438;-39
2023/12/27 09:56:18;;;;;;;14.13;13.23;;;10.40;1.00;;;;;;4920960;29;20453;-38
2023/12/27 09:58:45;;;;;;;13.30;12.40;;;10.60;1.00;;;;;;4931011;29;20556;-36
2023/12/27 10:01:12;;;;;;;13.80;12.90;;;10.60;1.00;;;;;;4922395;29;20421;-38
2023/12/27 10:03:43;;;;;;;13.40;12.60;;;10.80;1.00;;;;;;4924808;29;21181;-37
2023/12/27 10:06:20;;;;;;;14.30;13.30;;;10.90;1.00;;;;;;4937557;29;20548;-38
2023/12/27 10:08:46;;;;;;;12.70;11.90;;;11.00;1.00;;;;;;4924136;29;20864;-37
2023/12/27 10:11:12;;;;;;;13.77;12.97;;;11.30;1.00;;;;;;4938609;29;20420;-37
2023/12/27 10:13:41;;;;;;;13.30;12.43;;;11.70;1.00;;;;;;4925645;29;20477;-37
2023/12/27 10:16:06;;;;;;;12.83;12.03;;;11.80;1.00;;;;;;4937913;29;20850;-37
2023/12/27 10:18:32;;;;;;;13.07;12.23;;;11.90;1.00;;;;;;4935344;29;20433;-37
2023/12/27 10:20:58;;;;;;;13.03;12.23;;;12.00;1.00;;;;;;4936414;29;20240;-37
2023/12/27 10:23:24;;;;;;;12.90;12.10;;;12.20;1.00;;;;;;4939671;29;20738;-37
2023/12/27 10:25:53;;;;;;;13.67;12.87;;;12.30;1.00;;;;;;4930469;29;20426;-37
2023/12/27 10:28:25;;;;;;;13.60;12.53;;;12.50;1.00;;;;;;4923656;29;20240;-53
2023/12/27 10:30:54;;;;;;;13.73;12.83;;;12.50;1.00;;;;;;4930169;29;20991;-48
2023/12/27 10:33:20;;;;;;;13.50;12.70;;;12.00;1.00;;;;;;4922300;29;20446;-54
2023/12/27 10:35:50;;;;;;;13.77;12.87;;;11.70;1.00;;;;;;4931134;29;20444;-47
2023/12/27 10:38:16;;;;;;;13.60;12.60;;;11.20;1.00;;;;;;4925115;29;20499;-52
2023/12/27 10:40:42;;;;;;;14.10;13.20;;;11.10;1.00;;;;;;4924487;29;20461;-52
2023/12/27 10:43:08;;;;;;;13.47;12.67;;;10.80;1.00;;;;;;4921517;29;20572;-45
2023/12/27 10:45:35;;;;;;;13.27;12.50;;;10.50;1.00;;;;;;4938261;29;20228;-48
2023/12/27 10:48:06;;;;;;;13.80;13.00;;;10.30;1.00;;;;;;4941398;29;20425;-46
2023/12/27 10:50:32;;;;;;;14.63;13.73;;;10.50;1.00;;;;;;4923070;29;20779;-53
2023/12/27 10:53:02;;;;;;;13.40;12.50;;;10.90;1.00;;;;;;4921831;29;20727;-37
2023/12/27 10:55:29;;;;;;;13.70;13.00;;;11.30;1.00;;;;;;4922603;29;20481;-36
2023/12/27 10:57:56;;;;;;;13.67;12.87;;;11.70;1.00;;;;;;4926067;29;20420;-37
2023/12/27 11:00:23;;;;;;;13.70;12.90;;;11.90;1.00;;;;;;4936092;29;20540;-36
2023/12/27 11:02:51;;;;;;;13.97;12.97;;;12.40;1.00;;;;;;4921738;29;20469;-36
2023/12/27 11:05:19;;;;;;;13.80;12.90;;;12.70;1.00;;;;;;4932069;29;20416;-36
2023/12/27 11:07:46;;;;;;;14.83;13.73;;;12.80;1.00;;;;;;4935465;29;20440;-36
2023/12/27 11:10:16;;;;;;;13.63;12.83;;;12.80;1.00;;;;;;4939956;29;20488;-37
2023/12/27 11:12:47;;;;;;;13.70;12.80;;;13.00;1.00;;;;;;4927732;29;20433;-38
2023/12/27 11:15:19;;;;;;;14.00;13.30;;;13.00;1.00;;;;;;4922338;29;20436;-39
2023/12/27 11:17:47;;;;;;;13.70;12.90;;;13.00;1.00;;;;;;4940811;29;20420;-37
2023/12/27 11:20:13;;;;;;;14.40;13.57;;;13.00;1.00;;;;;;4929039;29;20525;-38
2023/12/27 11:22:40;;;;;;;13.50;12.70;;;13.00;1.00;;;;;;4939131;29;20936;-38
2023/12/27 11:25:06;;;;;;;13.57;12.73;;;12.90;1.00;;;;;;4941154;29;20189;-50
2023/12/27 11:27:32;;;;;;;12.93;12.00;;;12.90;1.00;;;;;;4924459;29;20488;-54
2023/12/27 11:29:58;;;;;;;12.80;12.13;;;13.10;1.00;;;;;;4922583;29;20453;-52
2023/12/27 11:32:26;;;;;;;12.60;11.90;;;13.30;1.00;;;;;;4927323;29;20456;-53
2023/12/27 11:34:54;;;;;;;13.23;12.33;;;13.90;1.00;;;;;;4922793;29;20429;-50
2023/12/27 11:37:24;;;;;;;12.60;12.00;;;14.10;1.00;;;;;;4936637;29;20910;-38
2023/12/27 11:39:53;;;;;;;16.17;14.80;;;14.50;1.00;;;;;;4940965;29;20503;-38
2023/12/27 11:42:21;;;;;;;12.83;12.13;;;14.90;1.00;;;;;;4930254;28;20461;-38
2023/12/27 11:44:48;;;;;;;13.30;12.60;;;14.80;1.00;;;;;;4930716;29;20931;-57
2023/12/27 11:47:16;;;;;;;13.47;12.67;;;14.70;1.00;;;;;;4937803;29;20451;-52
2023/12/27 11:50:02;;;;;;;12.07;11.47;;;14.50;1.00;;;;;;4944393;28;20539;-48
2023/12/27 11:52:27;;;;;;;12.80;12.20;;;14.60;1.00;;;;;;4932617;29;20790;-38
2023/12/27 11:55:09;;;;;;;13.10;12.20;;;14.80;1.00;;;;;;4944319;29;20420;-38
2023/12/27 11:57:35;;;;;;;12.37;11.80;;;14.60;99.90;;;;;;4929904;29;20260;-38
2023/12/27 12:00:01;;;;;;;12.93;12.20;;;14.40;99.90;;;;;;4942628;29;20440;-38
2023/12/27 12:02:27;;;;;;;12.73;12.00;;;14.50;99.90;;;;;;4942732;29;20618;-37
2023/12/27 12:05:07;;;;;;;12.50;11.80;;;14.60;99.90;;;;;;4944295;29;20193;-38
2023/12/27 12:07:56;;;;;;;12.57;11.87;;;14.50;99.90;;;;;;4942608;29;20675;-39
2023/12/27 12:10:26;;;;;;;12.73;12.03;;;14.30;99.90;;;;;;4944335;29;20428;-38
2023/12/27 12:12:55;;;;;;;12.57;11.97;;;14.20;99.90;;;;;;4939682;29;20459;-38
2023/12/27 12:15:24;;;;;;;12.60;11.90;;;13.90;99.90;;;;;;4944378;29;20481;-38
2023/12/27 12:17:51;;;;;;;12.40;11.67;;;13.90;99.90;;;;;;4932791;29;20439;-38
2023/12/27 12:20:17;;;;;;;12.23;11.73;;;14.00;99.90;;;;;;4934199;29;20435;-37
2023/12/27 12:22:44;;;;;;;14.50;13.60;;;13.90;99.90;;;;;;4933078;29;21483;-37
2023/12/27 12:25:10;;;;;;;13.00;12.30;;;14.00;99.90;;;;;;4925752;29;20557;-37
2023/12/27 12:27:38;;;;;;;11.80;11.20;;;13.80;99.90;;;;;;4926722;29;20500;-37
2023/12/27 12:30:06;;;;;;;13.20;12.47;;;13.90;99.90;;;;;;4925606;29;20433;-37
2023/12/27 12:32:32;;;;;;;13.60;12.80;;;13.60;99.90;;;;;;4934036;28;20427;-37
2023/12/27 12:34:57;;;;;;;13.60;12.47;;;13.80;99.90;;;;;;4925689;29;20433;-38